Time;durP1;ratioP1;P1;durP2;ratioP2;P2;SDS_P1;SDS_P2;PMS_P1;PMS_P2;Temp;Humidity;BMP_temperature;BMP_pressure;BME280_temperature;BME280_humidity;BME280_pressure;Samples;Min_cycle;Max_cycle;Signal;HPM_P1;HPM_P2
2021/12/26 00:00:12;;;;;;;;;;;8.70;97.10;;;;;;5009863;28;19909;-61
2021/12/26 00:02:38;;;;;;;;;;;8.70;97.10;;;;;;5015535;28;20016;-61
2021/12/26 00:05:04;;;;;;;;;;;8.60;97.10;;;;;;5010320;28;20480;-61
2021/12/26 00:07:29;;;;;;;;;;;8.70;97.50;;;;;;5002207;28;20011;-61
2021/12/26 00:09:54;;;;;;;;;;;8.70;97.10;;;;;;5001317;28;19909;-61
2021/12/26 00:12:20;;;;;;;;;;;8.60;97.00;;;;;;5012649;28;19913;-61
2021/12/26 00:14:46;;;;;;;;;;;8.70;97.10;;;;;;5025968;28;19943;-60
2021/12/26 00:17:11;;;;;;;;;;;8.70;97.10;;;;;;4998330;28;19996;-61
2021/12/26 00:19:36;;;;;;;;;;;8.60;97.00;;;;;;5016250;28;19913;-61
2021/12/26 00:22:02;;;;;;;;;;;8.60;97.00;;;;;;4997305;28;19910;-61
2021/12/26 00:24:27;;;;;;;;;;;8.70;97.10;;;;;;5021550;28;19921;-61
2021/12/26 00:26:53;;;;;;;;;;;8.50;97.00;;;;;;5007923;28;20085;-61
2021/12/26 00:29:18;;;;;;;;;;;8.70;97.00;;;;;;5026771;28;20339;-61
2021/12/26 00:31:44;;;;;;;;;;;8.70;97.00;;;;;;5011256;28;19920;-61
2021/12/26 00:34:09;;;;;;;;;;;8.60;97.00;;;;;;5003848;28;19992;-61
2021/12/26 00:36:35;;;;;;;;;;;8.60;97.00;;;;;;4998171;28;19922;-61
2021/12/26 00:39:00;;;;;;;;;;;8.60;97.00;;;;;;5023686;28;19948;-61
2021/12/26 00:41:26;;;;;;;;;;;8.60;97.00;;;;;;5006149;28;19924;-60
2021/12/26 00:43:53;;;;;;;;;;;8.60;97.00;;;;;;5022075;28;19935;-60
2021/12/26 00:46:18;;;;;;;;;;;8.60;97.00;;;;;;5025571;28;19916;-61
2021/12/26 00:48:43;;;;;;;;;;;8.60;97.00;;;;;;4990587;28;19925;-60
2021/12/26 00:51:09;;;;;;;;;;;8.60;97.00;;;;;;5015869;28;19915;-60
2021/12/26 00:53:34;;;;;;;;;;;8.60;97.00;;;;;;5004370;28;19948;-61
2021/12/26 00:56:00;;;;;;;;;;;8.60;96.90;;;;;;5015704;28;20369;-60
2021/12/26 00:58:25;;;;;;;;;;;8.60;96.90;;;;;;5025301;28;19960;-61
2021/12/26 01:00:51;;;;;;;;;;;8.60;96.90;;;;;;5012282;28;19921;-61
2021/12/26 01:03:17;;;;;;;;;;;8.60;96.80;;;;;;5011619;28;19921;-61
2021/12/26 01:05:44;;;;;;;;;;;8.60;96.90;;;;;;5016236;28;20273;-61
2021/12/26 01:08:10;;;;;;;;;;;8.60;96.90;;;;;;5010684;28;19909;-60
2021/12/26 01:10:37;;;;;;;;;;;8.60;96.90;;;;;;5017483;28;19921;-61
2021/12/26 01:13:14;;;;;;;;;;;8.60;96.90;;;;;;5022445;28;19909;-61
2021/12/26 01:15:39;;;;;;;;;;;8.60;97.00;;;;;;4999499;28;19951;-60
2021/12/26 01:18:05;;;;;;;;;;;8.60;97.00;;;;;;4988934;28;19925;-61
2021/12/26 01:21:15;;;;;;;;;;;8.60;96.90;;;;;;5017649;28;19917;-61
2021/12/26 01:23:23;;;;;;;;;;;8.60;96.90;;;;;;5023014;28;19916;-61
2021/12/26 01:25:48;;;;;;;;;;;8.60;96.90;;;;;;5026771;28;19913;-60
2021/12/26 01:28:14;;;;;;;;;;;8.60;96.90;;;;;;5022199;28;20329;-61
2021/12/26 01:30:41;;;;;;;;;;;8.60;96.90;;;;;;5008514;28;19920;-60
2021/12/26 01:33:10;;;;;;;;;;;8.60;96.90;;;;;;5015127;28;19952;-60
2021/12/26 01:35:36;;;;;;;;;;;8.60;96.90;;;;;;4998439;28;20023;-61
2021/12/26 01:38:02;;;;;;;;;;;8.60;96.80;;;;;;5014752;28;19913;-61
2021/12/26 01:40:27;;;;;;;;;;;8.60;96.90;;;;;;5012865;28;19944;-60
2021/12/26 01:42:53;;;;;;;;;;;8.60;96.90;;;;;;5030105;28;19963;-60
2021/12/26 01:45:18;;;;;;;;;;;8.60;96.90;;;;;;5030645;28;20369;-60
2021/12/26 01:47:47;;;;;;;;;;;8.60;96.90;;;;;;5026685;28;19948;-60
2021/12/26 01:50:12;;;;;;;;;;;8.60;96.80;;;;;;5026485;28;19916;-60
2021/12/26 01:52:38;;;;;;;;;;;8.60;96.90;;;;;;5017319;28;19913;-61
2021/12/26 01:55:37;;;;;;;;;;;8.60;96.90;;;;;;5010874;28;19996;-60
2021/12/26 01:58:02;;;;;;;;;;;8.60;96.90;;;;;;5029053;28;19966;-60
2021/12/26 02:00:28;;;;;;;;;;;8.60;96.90;;;;;;5011243;28;19913;-61
2021/12/26 02:02:53;;;;;;;;;;;8.60;96.90;;;;;;5012494;28;19948;-60
2021/12/26 02:05:19;;;;;;;;;;;8.50;96.90;;;;;;5021463;28;19917;-61
2021/12/26 02:07:44;;;;;;;;;;;8.60;96.90;;;;;;5010509;28;19924;-60
2021/12/26 02:10:10;;;;;;;;;;;8.60;96.80;;;;;;5003410;28;20334;-60
2021/12/26 02:12:35;;;;;;;;;;;8.60;96.80;;;;;;5011922;28;20400;-61
2021/12/26 02:15:01;;;;;;;;;;;8.60;96.80;;;;;;5028805;28;19964;-60
2021/12/26 02:17:28;;;;;;;;;;;8.60;97.10;;;;;;5011879;28;19909;-60
2021/12/26 02:20:11;;;;;;;;;;;8.60;96.80;;;;;;5027265;28;19918;-61
2021/12/26 02:22:39;;;;;;;;;;;8.60;96.70;;;;;;5013306;28;20004;-61
2021/12/26 02:27:33;;;;;;;;;;;8.60;96.80;;;;;;5019932;28;19913;-60
2021/12/26 02:30:04;;;;;;;;;;;8.60;96.80;;;;;;5010573;28;19917;-60
2021/12/26 02:32:30;;;;;;;;;;;8.60;96.80;;;;;;5016153;28;19921;-60
2021/12/26 02:34:57;;;;;;;;;;;8.60;96.80;;;;;;5027196;28;20368;-61
2021/12/26 02:37:22;;;;;;;;;;;8.60;96.80;;;;;;5012127;28;19916;-62
2021/12/26 02:39:48;;;;;;;;;;;8.60;96.80;;;;;;4998041;28;19914;-60
2021/12/26 02:42:16;;;;;;;;;;;8.60;96.80;;;;;;5011622;28;19909;-61
2021/12/26 02:44:41;;;;;;;;;;;8.60;96.80;;;;;;5011862;28;19925;-61
2021/12/26 02:47:07;;;;;;;;;;;8.60;96.80;;;;;;5015414;28;19913;-60
2021/12/26 02:49:32;;;;;;;;;;;8.60;96.80;;;;;;5011827;28;19917;-60
2021/12/26 02:51:57;;;;;;;;;;;8.60;96.80;;;;;;5028349;28;20505;-60
2021/12/26 02:54:24;;;;;;;;;;;8.60;96.90;;;;;;5011733;28;19917;-60
2021/12/26 02:56:49;;;;;;;;;;;8.50;96.80;;;;;;5019585;28;19909;-60
2021/12/26 02:59:14;;;;;;;;;;;8.50;96.80;;;;;;5026826;28;20000;-61
2021/12/26 03:01:40;;;;;;;;;;;8.60;96.90;;;;;;5018081;28;19921;-61
2021/12/26 03:04:08;;;;;;;;;;;8.60;96.90;;;;;;5026175;28;19924;-60
2021/12/26 03:06:42;;;;;;;;;;;8.60;96.80;;;;;;5038512;28;19935;-60
2021/12/26 03:09:08;;;;;;;;;;;8.50;96.80;;;;;;5025996;28;20298;-60
2021/12/26 03:11:35;;;;;;;;;;;8.50;96.90;;;;;;5027900;28;19913;-61
2021/12/26 03:14:00;;;;;;;;;;;8.60;96.90;;;;;;5027385;28;19924;-60
2021/12/26 03:16:26;;;;;;;;;;;8.50;96.90;;;;;;5010787;28;20284;-60
2021/12/26 03:18:55;;;;;;;;;;;8.50;96.90;;;;;;4993883;28;20015;-61
2021/12/26 03:21:20;;;;;;;;;;;8.50;96.80;;;;;;5032698;28;19957;-60
2021/12/26 03:23:46;;;;;;;;;;;8.50;96.90;;;;;;5011635;28;19956;-60
2021/12/26 03:26:11;;;;;;;;;;;8.60;96.90;;;;;;5010934;28;20408;-60
2021/12/26 03:28:37;;;;;;;;;;;8.50;96.90;;;;;;5000549;28;19913;-60
2021/12/26 03:31:03;;;;;;;;;;;8.60;96.90;;;;;;5027365;28;19920;-60
2021/12/26 03:33:28;;;;;;;;;;;8.50;96.90;;;;;;5007274;28;19952;-61
2021/12/26 03:35:54;;;;;;;;;;;8.50;96.90;;;;;;5025746;28;20017;-60
2021/12/26 03:38:21;;;;;;;;;;;8.50;96.90;;;;;;5026743;28;19951;-61
2021/12/26 03:40:47;;;;;;;;;;;8.50;96.80;;;;;;5023340;28;20005;-61
2021/12/26 03:43:12;;;;;;;;;;;8.50;96.80;;;;;;5025816;28;20067;-60
2021/12/26 03:45:38;;;;;;;;;;;8.50;96.80;;;;;;5010731;28;19975;-60
2021/12/26 03:48:04;;;;;;;;;;;8.50;96.70;;;;;;5026726;28;19915;-61
2021/12/26 03:50:31;;;;;;;;;;;8.60;96.80;;;;;;5011057;28;19913;-60
2021/12/26 03:52:57;;;;;;;;;;;8.50;96.80;;;;;;5027735;28;19910;-60
2021/12/26 03:55:25;;;;;;;;;;;8.50;96.80;;;;;;5027438;28;19913;-60
2021/12/26 03:57:51;;;;;;;;;;;8.50;96.80;;;;;;5013811;28;19928;-60
2021/12/26 04:00:17;;;;;;;;;;;8.50;96.80;;;;;;5006477;28;19910;-60
2021/12/26 04:02:42;;;;;;;;;;;8.50;96.80;;;;;;5023212;28;19914;-60
2021/12/26 04:05:08;;;;;;;;;;;8.50;96.80;;;;;;5027573;28;20434;-60
2021/12/26 04:07:33;;;;;;;;;;;8.50;96.80;;;;;;5025437;28;19936;-60
2021/12/26 04:09:59;;;;;;;;;;;8.50;96.80;;;;;;5011112;28;19909;-61
2021/12/26 04:12:24;;;;;;;;;;;8.50;96.90;;;;;;5016526;28;19912;-60
2021/12/26 04:14:50;;;;;;;;;;;8.50;96.90;;;;;;5006666;28;20456;-61
2021/12/26 04:17:15;;;;;;;;;;;8.50;96.90;;;;;;5032057;28;19982;-61
2021/12/26 04:19:41;;;;;;;;;;;8.50;96.90;;;;;;5011694;28;19914;-60
2021/12/26 04:22:08;;;;;;;;;;;8.50;96.90;;;;;;5018436;28;19912;-60
2021/12/26 04:24:34;;;;;;;;;;;8.50;96.90;;;;;;5030100;28;19913;-61
2021/12/26 04:26:59;;;;;;;;;;;8.50;96.90;;;;;;5028822;28;19913;-60
2021/12/26 04:29:25;;;;;;;;;;;8.50;96.90;;;;;;5035552;28;20004;-61
2021/12/26 04:31:50;;;;;;;;;;;8.50;96.90;;;;;;5004790;28;19920;-61
2021/12/26 04:34:15;;;;;;;;;;;8.50;96.90;;;;;;5030961;28;19928;-60
2021/12/26 04:36:41;;;;;;;;;;;8.50;97.00;;;;;;5009985;28;20400;-61
2021/12/26 04:39:06;;;;;;;;;;;8.50;96.90;;;;;;5025317;28;20015;-60
2021/12/26 04:41:32;;;;;;;;;;;8.50;96.90;;;;;;5010340;28;19916;-61
2021/12/26 04:43:57;;;;;;;;;;;8.50;96.90;;;;;;5007017;28;19935;-60
2021/12/26 04:46:23;;;;;;;;;;;8.50;96.90;;;;;;5008523;28;19913;-60
2021/12/26 04:48:48;;;;;;;;;;;8.50;97.00;;;;;;5014635;28;19909;-60
2021/12/26 04:51:14;;;;;;;;;;;8.50;96.90;;;;;;5012334;28;19955;-60
2021/12/26 04:53:39;;;;;;;;;;;8.40;96.90;;;;;;5031097;28;19920;-60
2021/12/26 04:56:05;;;;;;;;;;;8.50;97.00;;;;;;5028384;28;20008;-60
2021/12/26 04:58:30;;;;;;;;;;;8.50;97.00;;;;;;5013156;28;19913;-60
2021/12/26 05:00:56;;;;;;;;;;;8.50;96.90;;;;;;5029277;28;19925;-60
2021/12/26 05:03:21;;;;;;;;;;;8.50;96.90;;;;;;5012233;28;19937;-60
2021/12/26 05:05:47;;;;;;;;;;;8.50;96.90;;;;;;5031400;28;19921;-60
2021/12/26 05:08:12;;;;;;;;;;;8.50;96.90;;;;;;5027259;28;19909;-60
2021/12/26 05:10:38;;;;;;;;;;;8.50;96.90;;;;;;4997836;28;19959;-60
2021/12/26 05:13:03;;;;;;;;;;;8.50;96.90;;;;;;5027861;28;19913;-60
2021/12/26 05:15:29;;;;;;;;;;;8.50;96.80;;;;;;5029427;28;19925;-61
2021/12/26 05:17:54;;;;;;;;;;;8.50;96.90;;;;;;5031476;28;19910;-61
2021/12/26 05:20:20;;;;;;;;;;;8.50;96.90;;;;;;5030041;28;20292;-61
2021/12/26 05:22:46;;;;;;;;;;;8.50;96.90;;;;;;5010748;28;19917;-61
2021/12/26 05:25:12;;;;;;;;;;;8.50;96.90;;;;;;5013234;28;20431;-61
2021/12/26 05:27:37;;;;;;;;;;;8.50;96.90;;;;;;5031791;28;19913;-61
2021/12/26 05:30:04;;;;;;;;;;;8.50;96.90;;;;;;5013467;28;19909;-61
2021/12/26 05:32:29;;;;;;;;;;;8.50;96.90;;;;;;5015331;28;19924;-60
2021/12/26 05:34:55;;;;;;;;;;;8.50;96.90;;;;;;5015744;28;19917;-61
2021/12/26 05:37:20;;;;;;;;;;;8.60;96.90;;;;;;5013454;28;20414;-60
2021/12/26 05:39:46;;;;;;;;;;;8.50;96.90;;;;;;4997874;28;19924;-61
2021/12/26 05:42:15;;;;;;;;;;;8.50;96.90;;;;;;5008606;28;19920;-61
2021/12/26 05:44:42;;;;;;;;;;;8.50;96.90;;;;;;5025220;28;19917;-61
2021/12/26 05:47:07;;;;;;;;;;;8.50;96.90;;;;;;5025492;28;20424;-61
2021/12/26 05:49:32;;;;;;;;;;;8.50;96.90;;;;;;5008028;28;20001;-61
2021/12/26 05:51:58;;;;;;;;;;;8.50;96.90;;;;;;5024524;28;20262;-61
2021/12/26 05:54:23;;;;;;;;;;;8.50;96.90;;;;;;5008211;28;19917;-60
2021/12/26 05:56:49;;;;;;;;;;;8.40;96.90;;;;;;5012488;28;20157;-61
2021/12/26 05:59:14;;;;;;;;;;;8.50;96.90;;;;;;5007305;28;19913;-61
2021/12/26 06:01:40;;;;;;;;;;;8.50;96.90;;;;;;5033347;28;19917;-61
2021/12/26 06:04:05;;;;;;;;;;;8.50;97.00;;;;;;4995807;28;20292;-61
2021/12/26 06:06:31;;;;;;;;;;;8.60;97.00;;;;;;5008711;28;19924;-61
2021/12/26 06:08:56;;;;;;;;;;;8.40;96.90;;;;;;5020954;28;19914;-61
2021/12/26 06:11:22;;;;;;;;;;;8.50;96.90;;;;;;5025898;28;19924;-61
2021/12/26 06:13:47;;;;;;;;;;;8.50;96.90;;;;;;5024989;28;19924;-61
2021/12/26 06:16:13;;;;;;;;;;;8.50;96.90;;;;;;5027870;28;19956;-61
2021/12/26 06:18:38;;;;;;;;;;;8.50;97.00;;;;;;5013048;28;20368;-61
2021/12/26 06:21:03;;;;;;;;;;;8.50;97.00;;;;;;5005428;28;19921;-60
2021/12/26 06:23:29;;;;;;;;;;;8.40;97.00;;;;;;5026941;28;19917;-60
2021/12/26 06:25:54;;;;;;;;;;;8.50;97.10;;;;;;5005185;28;19921;-60
2021/12/26 06:28:20;;;;;;;;;;;8.50;97.10;;;;;;5009497;28;20361;-60
2021/12/26 06:30:45;;;;;;;;;;;8.50;97.10;;;;;;4992553;28;19918;-61
2021/12/26 06:33:11;;;;;;;;;;;8.50;97.00;;;;;;5020556;28;19932;-61
2021/12/26 06:35:36;;;;;;;;;;;8.40;97.00;;;;;;5017430;28;19925;-61
2021/12/26 06:38:01;;;;;;;;;;;8.50;97.00;;;;;;5001429;28;19913;-61
2021/12/26 06:40:27;;;;;;;;;;;8.50;97.00;;;;;;5005471;28;20006;-61
2021/12/26 06:42:52;;;;;;;;;;;8.50;97.00;;;;;;5020588;28;19936;-60
2021/12/26 06:45:18;;;;;;;;;;;8.50;97.00;;;;;;5022940;28;19920;-61
2021/12/26 06:47:49;;;;;;;;;;;8.50;97.00;;;;;;5012110;28;19952;-61
2021/12/26 06:50:15;;;;;;;;;;;8.50;97.00;;;;;;5014486;28;19909;-61
2021/12/26 06:52:41;;;;;;;;;;;8.50;97.00;;;;;;5019390;28;19913;-60
2021/12/26 06:55:07;;;;;;;;;;;8.50;97.00;;;;;;5010123;28;19913;-60
2021/12/26 06:57:33;;;;;;;;;;;8.50;97.10;;;;;;5022800;28;19913;-60
2021/12/26 06:59:58;;;;;;;;;;;8.50;97.10;;;;;;5023431;28;19923;-61
2021/12/26 07:02:23;;;;;;;;;;;8.50;97.10;;;;;;5010158;28;19921;-61
2021/12/26 07:04:49;;;;;;;;;;;8.50;97.10;;;;;;5003819;28;19918;-61
2021/12/26 07:07:14;;;;;;;;;;;8.50;97.10;;;;;;5022100;28;19913;-60
2021/12/26 07:09:42;;;;;;;;;;;8.50;97.20;;;;;;5026172;28;20280;-61
2021/12/26 07:12:08;;;;;;;;;;;8.50;97.20;;;;;;5003284;28;19922;-61
2021/12/26 07:14:33;;;;;;;;;;;8.60;97.40;;;;;;5002757;28;20349;-61
2021/12/26 07:16:59;;;;;;;;;;;8.50;97.40;;;;;;5017170;28;20405;-61
2021/12/26 07:19:24;;;;;;;;;;;8.50;97.50;;;;;;5004041;28;19909;-61
2021/12/26 07:21:50;;;;;;;;;;;8.50;97.50;;;;;;5006527;28;19914;-61
2021/12/26 07:24:15;;;;;;;;;;;8.50;97.50;;;;;;5012403;28;19917;-61
2021/12/26 07:26:41;;;;;;;;;;;8.50;97.50;;;;;;5011768;28;20400;-61
2021/12/26 07:29:06;;;;;;;;;;;8.50;97.50;;;;;;5006239;28;19918;-60
2021/12/26 07:31:32;;;;;;;;;;;8.50;97.60;;;;;;5007415;28;19917;-61
2021/12/26 07:33:57;;;;;;;;;;;8.60;97.70;;;;;;5011401;28;19909;-61
2021/12/26 07:36:23;;;;;;;;;;;8.60;97.70;;;;;;5012677;28;19970;-61
2021/12/26 07:38:48;;;;;;;;;;;8.50;97.60;;;;;;5029190;28;20259;-61
2021/12/26 07:41:13;;;;;;;;;;;8.60;97.60;;;;;;5027796;28;19928;-61
2021/12/26 07:43:39;;;;;;;;;;;8.60;97.60;;;;;;5028271;28;19957;-60
2021/12/26 07:46:05;;;;;;;;;;;8.60;97.70;;;;;;5009839;28;19921;-61
2021/12/26 07:48:30;;;;;;;;;;;8.60;97.60;;;;;;5033773;28;19909;-61
2021/12/26 07:50:55;;;;;;;;;;;8.60;97.70;;;;;;5013972;28;19921;-61
2021/12/26 07:53:21;;;;;;;;;;;8.50;97.60;;;;;;4998567;28;19913;-61
2021/12/26 07:55:47;;;;;;;;;;;8.60;97.60;;;;;;5022667;28;19925;-60
2021/12/26 07:58:13;;;;;;;;;;;8.60;97.60;;;;;;4997531;28;19920;-60
2021/12/26 08:00:39;;;;;;;;;;;8.60;97.70;;;;;;5008825;28;19952;-61
2021/12/26 08:03:04;;;;;;;;;;;8.60;97.60;;;;;;5016466;28;19924;-61
2021/12/26 08:05:30;;;;;;;;;;;8.60;97.60;;;;;;5010196;28;19993;-61
2021/12/26 08:07:55;;;;;;;;;;;8.60;97.60;;;;;;5007532;28;20116;-61
2021/12/26 08:10:21;;;;;;;;;;;8.60;97.50;;;;;;5014664;28;19913;-61
2021/12/26 08:12:46;;;;;;;;;;;8.60;97.70;;;;;;5022661;28;19960;-62
2021/12/26 08:15:12;;;;;;;;;;;8.60;97.80;;;;;;5013717;28;19969;-60
2021/12/26 08:17:38;;;;;;;;;;;8.70;97.80;;;;;;5035628;28;20313;-61
2021/12/26 08:20:04;;;;;;;;;;;8.70;97.80;;;;;;5026439;28;19959;-60
2021/12/26 08:22:30;;;;;;;;;;;8.70;97.70;;;;;;5032091;28;19955;-61
2021/12/26 08:24:55;;;;;;;;;;;8.60;97.70;;;;;;4999554;28;19925;-60
2021/12/26 08:27:21;;;;;;;;;;;8.70;97.70;;;;;;5024623;28;19916;-60
2021/12/26 08:29:47;;;;;;;;;;;8.70;97.80;;;;;;5012360;28;20418;-60
2021/12/26 08:32:14;;;;;;;;;;;8.70;97.80;;;;;;5013466;28;19913;-61
2021/12/26 08:34:40;;;;;;;;;;;8.70;97.90;;;;;;5028118;28;20007;-60
2021/12/26 08:37:05;;;;;;;;;;;8.70;98.00;;;;;;5003743;28;20006;-60
2021/12/26 08:39:31;;;;;;;;;;;8.70;98.00;;;;;;5029732;28;19913;-61
2021/12/26 08:41:57;;;;;;;;;;;8.70;98.00;;;;;;5016764;28;19909;-61
2021/12/26 08:44:22;;;;;;;;;;;8.70;98.20;;;;;;5013851;28;20269;-61
2021/12/26 08:46:48;;;;;;;;;;;8.70;98.20;;;;;;5016717;28;19909;-61
2021/12/26 08:49:14;;;;;;;;;;;8.70;98.30;;;;;;5013449;28;20412;-61
2021/12/26 08:51:39;;;;;;;;;;;8.70;98.40;;;;;;5012554;28;19960;-61
2021/12/26 08:54:05;;;;;;;;;;;8.70;98.50;;;;;;5024859;28;19917;-61
2021/12/26 08:56:30;;;;;;;;;;;8.70;98.60;;;;;;4996631;28;19921;-61
2021/12/26 08:58:56;;;;;;;;;;;8.70;98.70;;;;;;5013083;28;20011;-61
2021/12/26 09:01:21;;;;;;;;;;;8.70;98.70;;;;;;5029817;28;20344;-61
2021/12/26 09:03:46;;;;;;;;;;;8.70;98.80;;;;;;5013803;28;19909;-61
2021/12/26 09:06:12;;;;;;;;;;;8.70;98.80;;;;;;5013075;28;19909;-61
2021/12/26 09:08:39;;;;;;;;;;;8.80;98.90;;;;;;5029452;28;20397;-62
2021/12/26 09:11:05;;;;;;;;;;;8.70;98.80;;;;;;5029891;28;20327;-61
2021/12/26 09:13:30;;;;;;;;;;;8.80;98.80;;;;;;5007208;28;19917;-60
2021/12/26 09:15:55;;;;;;;;;;;8.80;98.90;;;;;;5031549;28;19921;-61
2021/12/26 09:18:21;;;;;;;;;;;8.80;98.90;;;;;;5030550;28;20331;-62
2021/12/26 09:20:46;;;;;;;;;;;8.80;98.90;;;;;;5011213;28;19925;-61
2021/12/26 09:23:12;;;;;;;;;;;8.80;98.90;;;;;;4994589;28;19999;-60
2021/12/26 09:25:37;;;;;;;;;;;8.80;98.90;;;;;;4996883;28;19917;-60
2021/12/26 09:28:03;;;;;;;;;;;8.90;98.90;;;;;;5009783;28;20504;-61
2021/12/26 09:30:29;;;;;;;;;;;8.90;98.90;;;;;;5013138;28;19914;-61
2021/12/26 09:32:55;;;;;;;;;;;8.90;98.90;;;;;;5005376;28;19909;-61
2021/12/26 09:35:20;;;;;;;;;;;8.90;98.90;;;;;;5004016;28;19930;-61
2021/12/26 09:37:46;;;;;;;;;;;8.90;98.80;;;;;;5005883;28;19953;-61
2021/12/26 09:40:12;;;;;;;;;;;8.90;98.60;;;;;;5001144;28;20365;-61
2021/12/26 09:42:37;;;;;;;;;;;8.90;98.60;;;;;;5029604;28;19913;-61
2021/12/26 09:45:04;;;;;;;;;;;8.90;98.80;;;;;;5006763;28;20399;-61
2021/12/26 09:47:29;;;;;;;;;;;8.90;98.80;;;;;;5012165;28;19917;-60
2021/12/26 09:49:55;;;;;;;;;;;9.00;98.90;;;;;;5018206;28;20481;-60
2021/12/26 09:52:20;;;;;;;;;;;9.00;98.90;;;;;;4994864;28;19953;-62
2021/12/26 09:54:46;;;;;;;;;;;9.00;98.80;;;;;;5003261;28;19933;-60
2021/12/26 09:57:12;;;;;;;;;;;9.00;98.80;;;;;;5000272;28;19918;-61
2021/12/26 09:59:38;;;;;;;;;;;9.00;98.70;;;;;;5000207;28;19921;-62
2021/12/26 10:02:11;;;;;;;;;;;9.10;98.70;;;;;;5000516;28;19922;-60
2021/12/26 10:04:36;;;;;;;;;;;9.10;98.60;;;;;;5021541;28;19917;-61
2021/12/26 10:07:02;;;;;;;;;;;9.10;98.70;;;;;;5004566;28;19947;-61
2021/12/26 10:09:27;;;;;;;;;;;9.10;98.80;;;;;;5022677;28;19944;-61
2021/12/26 10:11:54;;;;;;;;;;;9.20;99.10;;;;;;5004612;28;19913;-60
2021/12/26 10:14:23;;;;;;;;;;;9.20;99.00;;;;;;5005852;28;19927;-60
2021/12/26 10:16:56;;;;;;;;;;;9.20;98.80;;;;;;5000581;28;19914;-61
2021/12/26 10:19:21;;;;;;;;;;;9.20;98.80;;;;;;5022921;28;20723;-61
2021/12/26 10:21:54;;;;;;;;;;;9.20;99.00;;;;;;4994540;28;19917;-61
2021/12/26 10:24:23;;;;;;;;;;;9.30;98.90;;;;;;5011504;28;19921;-60
2021/12/26 10:26:56;;;;;;;;;;;9.30;99.10;;;;;;5012800;28;19925;-62
2021/12/26 10:29:33;;;;;;;;;;;9.30;99.30;;;;;;4995242;28;20012;-61
2021/12/26 10:32:25;;;;;;;;;;;9.30;99.30;;;;;;5005796;28;19929;-61
2021/12/26 10:34:50;;;;;;;;;;;9.40;99.50;;;;;;5018581;28;19932;-60
2021/12/26 10:37:17;;;;;;;;;;;9.40;99.60;;;;;;5020201;28;19921;-61
2021/12/26 10:39:43;;;;;;;;;;;9.40;99.20;;;;;;5017620;28;20393;-61
2021/12/26 10:42:12;;;;;;;;;;;9.50;99.30;;;;;;5016161;28;20106;-61
2021/12/26 10:44:39;;;;;;;;;;;9.50;99.30;;;;;;4998125;28;20001;-61
2021/12/26 10:47:08;;;;;;;;;;;9.50;99.30;;;;;;5001674;28;19921;-60
2021/12/26 10:49:35;;;;;;;;;;;9.60;99.40;;;;;;4997306;28;19913;-60
2021/12/26 10:52:01;;;;;;;;;;;9.60;99.20;;;;;;5001345;28;19917;-60
2021/12/26 10:54:31;;;;;;;;;;;9.60;99.10;;;;;;4999911;28;19960;-61
2021/12/26 10:57:05;;;;;;;;;;;9.70;99.20;;;;;;5008934;28;19921;-61
2021/12/26 10:59:31;;;;;;;;;;;9.80;99.20;;;;;;5018525;28;19920;-61
2021/12/26 11:01:56;;;;;;;;;;;9.80;99.10;;;;;;5002950;28;19925;-60
2021/12/26 11:04:25;;;;;;;;;;;9.90;99.10;;;;;;5012008;28;19913;-60
2021/12/26 11:07:01;;;;;;;;;;;9.80;99.00;;;;;;5023378;28;19917;-61
2021/12/26 11:09:26;;;;;;;;;;;9.90;98.90;;;;;;5016975;28;19956;-61
2021/12/26 11:12:03;;;;;;;;;;;9.90;99.00;;;;;;5018465;28;19961;-60
2021/12/26 11:14:29;;;;;;;;;;;9.90;99.10;;;;;;5023097;28;19913;-61
2021/12/26 11:16:54;;;;;;;;;;;9.90;99.10;;;;;;5011818;28;20374;-60
2021/12/26 11:19:39;;;;;;;;;;;10.00;99.20;;;;;;5016024;28;20016;-60
2021/12/26 11:22:04;;;;;;;;;;;10.00;99.20;;;;;;5004315;28;20372;-60
2021/12/26 11:24:30;;;;;;;;;;;10.00;99.30;;;;;;5019905;28;19921;-59
2021/12/26 11:26:55;;;;;;;;;;;10.10;99.30;;;;;;4994747;28;20428;-60
2021/12/26 11:29:21;;;;;;;;;;;10.10;99.30;;;;;;5003458;28;19913;-60
2021/12/26 11:31:46;;;;;;;;;;;10.10;99.30;;;;;;5009164;28;19921;-61
2021/12/26 11:34:12;;;;;;;;;;;10.20;99.40;;;;;;5000242;28;19921;-60
2021/12/26 11:36:37;;;;;;;;;;;10.20;99.30;;;;;;5009237;28;19925;-60
2021/12/26 11:39:05;;;;;;;;;;;10.20;99.30;;;;;;5009295;28;19929;-61
2021/12/26 11:41:49;;;;;;;;;;;10.20;99.40;;;;;;5017657;28;19917;-61
2021/12/26 11:44:21;;;;;;;;;;;10.20;99.50;;;;;;5017972;28;19921;-62
2021/12/26 11:46:54;;;;;;;;;;;10.30;99.60;;;;;;5014953;28;19922;-62
2021/12/26 11:49:25;;;;;;;;;;;10.30;99.70;;;;;;5001534;28;20025;-62
2021/12/26 11:52:03;;;;;;;;;;;10.30;99.80;;;;;;5023883;28;19962;-62
2021/12/26 11:54:33;;;;;;;;;;;10.30;99.60;;;;;;5002267;28;20469;-62
2021/12/26 11:57:17;;;;;;;;;;;10.30;99.50;;;;;;5013982;28;19971;-62
2021/12/26 11:59:50;;;;;;;;;;;10.30;99.50;;;;;;5017125;28;19982;-61
2021/12/26 12:02:32;;;;;;;;;;;10.40;99.60;;;;;;5006678;28;20335;-62
2021/12/26 12:05:10;;;;;;;;;;;10.40;99.70;;;;;;5015402;28;19913;-62
2021/12/26 12:07:54;;;;;;;;;;;10.40;99.70;;;;;;5020266;28;19925;-62
2021/12/26 12:10:35;;;;;;;;;;;10.50;99.70;;;;;;5015531;28;20009;-62
2021/12/26 12:13:01;;;;;;;;;;;10.50;99.60;;;;;;5022706;28;20288;-61
2021/12/26 12:15:44;;;;;;;;;;;10.60;99.40;;;;;;5006775;28;19921;-62
2021/12/26 12:18:14;;;;;;;;;;;10.50;99.30;;;;;;5018544;28;19936;-61
2021/12/26 12:20:40;;;;;;;;;;;10.50;99.30;;;;;;5004770;28;19982;-61
2021/12/26 12:23:09;;;;;;;;;;;10.50;99.30;;;;;;5003072;28;20480;-62
2021/12/26 12:25:35;;;;;;;;;;;10.60;99.20;;;;;;5025855;28;20382;-62
2021/12/26 12:28:14;;;;;;;;;;;10.60;99.20;;;;;;5021397;28;19917;-62
2021/12/26 12:30:40;;;;;;;;;;;10.60;99.20;;;;;;4999434;28;20416;-63
2021/12/26 12:33:25;;;;;;;;;;;10.60;99.20;;;;;;5000533;28;20300;-62
2021/12/26 12:35:50;;;;;;;;;;;10.70;99.10;;;;;;5019621;28;19936;-62
2021/12/26 12:38:22;;;;;;;;;;;10.70;99.20;;;;;;5026446;28;19922;-61
2021/12/26 12:40:48;;;;;;;;;;;10.70;99.20;;;;;;4998401;28;19920;-61
2021/12/26 12:43:18;;;;;;;;;;;10.70;99.20;;;;;;5017444;28;19914;-62
2021/12/26 12:45:58;;;;;;;;;;;10.70;99.10;;;;;;5005196;28;19913;-62
2021/12/26 12:48:23;;;;;;;;;;;10.70;99.10;;;;;;5021562;28;19920;-62
2021/12/26 12:50:50;;;;;;;;;;;10.70;99.10;;;;;;5023087;28;19913;-62
2021/12/26 12:53:34;;;;;;;;;;;10.70;99.10;;;;;;5018884;28;20079;-61
2021/12/26 12:55:59;;;;;;;;;;;10.70;99.20;;;;;;5019427;28;20396;-61
2021/12/26 12:58:31;;;;;;;;;;;10.70;99.10;;;;;;5009558;28;19948;-61
2021/12/26 13:01:02;;;;;;;;;;;10.70;98.90;;;;;;5020745;28;19933;-62
2021/12/26 13:03:28;;;;;;;;;;;10.70;98.80;;;;;;5030248;28;19913;-61
2021/12/26 13:05:54;;;;;;;;;;;10.70;98.70;;;;;;5013829;28;20016;-61
2021/12/26 13:08:20;;;;;;;;;;;10.70;98.70;;;;;;5022732;28;20104;-61
2021/12/26 13:10:49;;;;;;;;;;;10.80;98.80;;;;;;5024005;28;19967;-61
2021/12/26 13:13:16;;;;;;;;;;;10.80;98.70;;;;;;5006928;28;19912;-62
2021/12/26 13:15:52;;;;;;;;;;;10.80;98.70;;;;;;5007773;28;20377;-62
2021/12/26 13:18:18;;;;;;;;;;;10.80;98.60;;;;;;5021336;28;20373;-62
2021/12/26 13:20:47;;;;;;;;;;;10.70;98.50;;;;;;4996701;28;19931;-61
2021/12/26 13:23:13;;;;;;;;;;;10.90;98.50;;;;;;5004218;28;19968;-62
2021/12/26 13:25:38;;;;;;;;;;;10.80;98.40;;;;;;5024866;28;19924;-61
2021/12/26 13:28:12;;;;;;;;;;;11.00;98.30;;;;;;5025916;28;19909;-62
2021/12/26 13:30:44;;;;;;;;;;;10.90;98.20;;;;;;5026286;28;19917;-62
2021/12/26 13:33:13;;;;;;;;;;;10.80;98.20;;;;;;5013403;28;20284;-61
2021/12/26 13:35:39;;;;;;;;;;;10.90;98.30;;;;;;5012820;28;19980;-61
2021/12/26 13:38:06;;;;;;;;;;;10.90;98.30;;;;;;5029399;28;20357;-62
2021/12/26 13:40:35;;;;;;;;;;;10.90;98.30;;;;;;5027119;28;20012;-61
2021/12/26 13:43:00;;;;;;;;;;;10.80;98.30;;;;;;4995666;28;19917;-61
2021/12/26 13:45:30;;;;;;;;;;;10.90;98.30;;;;;;5011281;28;19920;-62
2021/12/26 13:47:55;;;;;;;;;;;10.90;98.30;;;;;;5029735;28;20037;-61
2021/12/26 13:50:21;;;;;;;;;;;10.90;98.40;;;;;;4991772;28;19948;-62
2021/12/26 13:52:46;;;;;;;;;;;10.90;98.20;;;;;;5012452;28;19919;-61
2021/12/26 13:55:12;;;;;;;;;;;10.90;98.10;;;;;;5011836;28;20135;-62
2021/12/26 13:57:37;;;;;;;;;;;10.90;98.10;;;;;;5030224;28;19993;-61
2021/12/26 14:00:03;;;;;;;;;;;10.90;98.10;;;;;;5028090;28;19910;-61
2021/12/26 14:02:32;;;;;;;;;;;10.90;98.10;;;;;;5025236;28;20392;-61
2021/12/26 14:04:59;;;;;;;;;;;10.90;98.00;;;;;;5027547;28;20000;-62
2021/12/26 14:07:32;;;;;;;;;;;10.80;98.00;;;;;;5012090;28;19963;-61
2021/12/26 14:09:59;;;;;;;;;;;10.80;98.10;;;;;;5027248;28;20421;-61
2021/12/26 14:12:39;;;;;;;;;;;10.80;98.10;;;;;;5028962;28;19967;-62
2021/12/26 14:15:23;;;;;;;;;;;10.90;98.00;;;;;;5028524;28;19913;-62
2021/12/26 14:17:49;;;;;;;;;;;10.90;98.00;;;;;;5012092;28;20428;-62
2021/12/26 14:20:14;;;;;;;;;;;10.90;98.00;;;;;;5006024;28;19917;-61
2021/12/26 14:22:40;;;;;;;;;;;10.90;98.10;;;;;;5005076;28;19970;-62
2021/12/26 14:25:06;;;;;;;;;;;10.90;98.20;;;;;;5026401;28;19913;-61
2021/12/26 14:27:32;;;;;;;;;;;10.90;98.20;;;;;;5014780;28;19925;-61